Terminal Aerodrome Forecast
Issued by NWS

Home | Current Version | Previous Version | Text Only | Print | Product List | Glossary On
Versions: 1 2 3 4 5 6 7 8 9 10 11 12 13 14 15 16 17 18 19 20 21 22 23 24 25 26 27 28 29
237
FTUS44 KOHX 291207 AAA
TAFCKV
TAF AMD
KCKV 291207Z 2912/3012 20003KT P6SM BKN015
     FM291700 22005KT P6SM VCTS BKN050CB
     FM292100 21003KT P6SM BKN100
     FM300700 21003KT 4SM BR SCT015 OVC021=

USA.gov is the U.S. government's official web portal to all federal, state and local government web resources and services.